sensor_id;sensor_type;location;lat;lon;timestamp;P1;durP1;ratioP1;P2;durP2;ratioP2
15112;SDS011;7657;50.140;7.076;2023-02-01T00:00:30;13.23;;;8.97;;
15112;SDS011;7657;50.140;7.076;2023-02-01T00:02:58;11.13;;;8.03;;
15112;SDS011;7657;50.140;7.076;2023-02-01T00:05:26;9.90;;;7.00;;
15112;SDS011;7657;50.140;7.076;2023-02-01T00:07:53;11.43;;;7.00;;
15112;SDS011;7657;50.140;7.076;2023-02-01T00:10:20;9.30;;;7.03;;
15112;SDS011;7657;50.140;7.076;2023-02-01T00:12:47;10.53;;;7.93;;
15112;SDS011;7657;50.140;7.076;2023-02-01T00:15:14;8.67;;;6.53;;
15112;SDS011;7657;50.140;7.076;2023-02-01T00:17:41;10.70;;;7.40;;
15112;SDS011;7657;50.140;7.076;2023-02-01T00:20:08;10.30;;;7.20;;
15112;SDS011;7657;50.140;7.076;2023-02-01T00:22:37;9.60;;;6.47;;
15112;SDS011;7657;50.140;7.076;2023-02-01T00:25:05;9.57;;;6.67;;
15112;SDS011;7657;50.140;7.076;2023-02-01T00:27:32;7.80;;;5.80;;
15112;SDS011;7657;50.140;7.076;2023-02-01T00:29:59;8.33;;;5.97;;
15112;SDS011;7657;50.140;7.076;2023-02-01T00:32:26;8.97;;;6.53;;
15112;SDS011;7657;50.140;7.076;2023-02-01T00:34:53;10.67;;;6.20;;
15112;SDS011;7657;50.140;7.076;2023-02-01T00:37:19;8.63;;;6.20;;
15112;SDS011;7657;50.140;7.076;2023-02-01T00:39:48;8.87;;;6.00;;
15112;SDS011;7657;50.140;7.076;2023-02-01T00:42:15;8.27;;;5.33;;
15112;SDS011;7657;50.140;7.076;2023-02-01T00:44:42;9.53;;;5.83;;
15112;SDS011;7657;50.140;7.076;2023-02-01T00:47:09;9.77;;;5.87;;
15112;SDS011;7657;50.140;7.076;2023-02-01T00:49:35;8.13;;;5.47;;
15112;SDS011;7657;50.140;7.076;2023-02-01T00:52:02;8.97;;;5.57;;
15112;SDS011;7657;50.140;7.076;2023-02-01T00:54:30;8.33;;;5.07;;
15112;SDS011;7657;50.140;7.076;2023-02-01T00:56:58;8.33;;;5.37;;
15112;SDS011;7657;50.140;7.076;2023-02-01T00:59:25;6.53;;;4.50;;
15112;SDS011;7657;50.140;7.076;2023-02-01T01:01:52;5.90;;;4.53;;
15112;SDS011;7657;50.140;7.076;2023-02-01T01:04:19;7.83;;;4.93;;
15112;SDS011;7657;50.140;7.076;2023-02-01T01:06:46;5.77;;;4.57;;
15112;SDS011;7657;50.140;7.076;2023-02-01T01:09:13;4.70;;;4.00;;
15112;SDS011;7657;50.140;7.076;2023-02-01T01:11:39;6.33;;;4.80;;
15112;SDS011;7657;50.140;7.076;2023-02-01T01:14:08;5.70;;;4.20;;
15112;SDS011;7657;50.140;7.076;2023-02-01T01:16:35;9.83;;;6.97;;
15112;SDS011;7657;50.140;7.076;2023-02-01T01:19:02;13.10;;;10.17;;
15112;SDS011;7657;50.140;7.076;2023-02-01T01:21:30;5.77;;;4.47;;
15112;SDS011;7657;50.140;7.076;2023-02-01T01:23:57;4.67;;;3.60;;
15112;SDS011;7657;50.140;7.076;2023-02-01T01:26:24;5.97;;;4.33;;
15112;SDS011;7657;50.140;7.076;2023-02-01T01:28:54;4.83;;;3.73;;
15112;SDS011;7657;50.140;7.076;2023-02-01T01:31:23;4.73;;;3.87;;
15112;SDS011;7657;50.140;7.076;2023-02-01T01:33:50;5.43;;;4.07;;
15112;SDS011;7657;50.140;7.076;2023-02-01T01:36:19;4.07;;;3.30;;
15112;SDS011;7657;50.140;7.076;2023-02-01T01:38:47;4.87;;;3.57;;
15112;SDS011;7657;50.140;7.076;2023-02-01T01:41:15;5.63;;;3.87;;
15112;SDS011;7657;50.140;7.076;2023-02-01T01:43:51;5.93;;;3.77;;
15112;SDS011;7657;50.140;7.076;2023-02-01T01:46:20;6.20;;;3.57;;
15112;SDS011;7657;50.140;7.076;2023-02-01T01:48:50;5.10;;;3.40;;
15112;SDS011;7657;50.140;7.076;2023-02-01T01:51:25;3.43;;;2.90;;
15112;SDS011;7657;50.140;7.076;2023-02-01T01:53:56;5.20;;;3.50;;
15112;SDS011;7657;50.140;7.076;2023-02-01T01:56:27;4.00;;;2.93;;
15112;SDS011;7657;50.140;7.076;2023-02-01T01:58:57;5.13;;;3.00;;
15112;SDS011;7657;50.140;7.076;2023-02-01T02:01:25;4.73;;;3.10;;
15112;SDS011;7657;50.140;7.076;2023-02-01T02:03:53;4.23;;;3.20;;
15112;SDS011;7657;50.140;7.076;2023-02-01T02:06:24;4.43;;;3.13;;
15112;SDS011;7657;50.140;7.076;2023-02-01T02:08:56;3.50;;;2.93;;
15112;SDS011;7657;50.140;7.076;2023-02-01T02:11:23;3.40;;;3.00;;
15112;SDS011;7657;50.140;7.076;2023-02-01T02:13:50;5.20;;;3.17;;
15112;SDS011;7657;50.140;7.076;2023-02-01T02:16:24;5.27;;;3.00;;
15112;SDS011;7657;50.140;7.076;2023-02-01T02:19:05;4.17;;;3.17;;
15112;SDS011;7657;50.140;7.076;2023-02-01T02:21:53;4.37;;;3.33;;
15112;SDS011;7657;50.140;7.076;2023-02-01T02:24:39;6.23;;;4.07;;
15112;SDS011;7657;50.140;7.076;2023-02-01T02:27:23;7.70;;;4.30;;
15112;SDS011;7657;50.140;7.076;2023-02-01T02:33:37;7.73;;;4.00;;
15112;SDS011;7657;50.140;7.076;2023-02-01T02:36:23;5.77;;;3.80;;
15112;SDS011;7657;50.140;7.076;2023-02-01T02:39:03;8.70;;;4.30;;
15112;SDS011;7657;50.140;7.076;2023-02-01T02:41:36;9.50;;;4.00;;
15112;SDS011;7657;50.140;7.076;2023-02-01T02:44:28;6.20;;;3.93;;
15112;SDS011;7657;50.140;7.076;2023-02-01T02:47:16;9.63;;;4.43;;
15112;SDS011;7657;50.140;7.076;2023-02-01T02:49:55;7.47;;;3.93;;
15112;SDS011;7657;50.140;7.076;2023-02-01T02:52:48;7.33;;;3.90;;
15112;SDS011;7657;50.140;7.076;2023-02-01T02:55:37;6.30;;;3.70;;
15112;SDS011;7657;50.140;7.076;2023-02-01T02:58:05;7.13;;;3.70;;
15112;SDS011;7657;50.140;7.076;2023-02-01T03:00:52;8.17;;;3.70;;
15112;SDS011;7657;50.140;7.076;2023-02-01T03:03:38;7.83;;;3.20;;
15112;SDS011;7657;50.140;7.076;2023-02-01T03:06:24;7.27;;;3.53;;
15112;SDS011;7657;50.140;7.076;2023-02-01T03:08:51;7.60;;;4.77;;
15112;SDS011;7657;50.140;7.076;2023-02-01T03:11:21;5.57;;;3.20;;
15112;SDS011;7657;50.140;7.076;2023-02-01T03:14:10;8.73;;;3.60;;
15112;SDS011;7657;50.140;7.076;2023-02-01T03:16:40;8.43;;;3.30;;
15112;SDS011;7657;50.140;7.076;2023-02-01T03:19:14;9.07;;;3.40;;
15112;SDS011;7657;50.140;7.076;2023-02-01T03:21:46;5.07;;;3.47;;
15112;SDS011;7657;50.140;7.076;2023-02-01T03:24:17;8.70;;;3.37;;
15112;SDS011;7657;50.140;7.076;2023-02-01T03:26:47;6.27;;;3.30;;
15112;SDS011;7657;50.140;7.076;2023-02-01T03:29:21;4.40;;;3.10;;
15112;SDS011;7657;50.140;7.076;2023-02-01T03:31:51;7.77;;;3.53;;
15112;SDS011;7657;50.140;7.076;2023-02-01T03:34:18;8.10;;;3.03;;
15112;SDS011;7657;50.140;7.076;2023-02-01T03:36:48;7.77;;;3.57;;
15112;SDS011;7657;50.140;7.076;2023-02-01T03:39:19;11.37;;;3.43;;
15112;SDS011;7657;50.140;7.076;2023-02-01T03:41:51;7.50;;;3.00;;
15112;SDS011;7657;50.140;7.076;2023-02-01T03:44:22;5.43;;;3.00;;
15112;SDS011;7657;50.140;7.076;2023-02-01T03:46:51;8.30;;;3.13;;
15112;SDS011;7657;50.140;7.076;2023-02-01T03:49:22;9.43;;;3.57;;
15112;SDS011;7657;50.140;7.076;2023-02-01T03:51:53;7.53;;;2.97;;
15112;SDS011;7657;50.140;7.076;2023-02-01T03:54:22;6.57;;;3.20;;
15112;SDS011;7657;50.140;7.076;2023-02-01T03:56:51;10.40;;;3.40;;
15112;SDS011;7657;50.140;7.076;2023-02-01T03:59:21;8.77;;;3.20;;
15112;SDS011;7657;50.140;7.076;2023-02-01T04:01:49;5.60;;;3.07;;
15112;SDS011;7657;50.140;7.076;2023-02-01T04:04:16;6.87;;;3.43;;
15112;SDS011;7657;50.140;7.076;2023-02-01T04:06:45;9.87;;;3.47;;
15112;SDS011;7657;50.140;7.076;2023-02-01T04:09:14;7.37;;;3.40;;
15112;SDS011;7657;50.140;7.076;2023-02-01T04:11:41;8.20;;;3.07;;
15112;SDS011;7657;50.140;7.076;2023-02-01T04:14:08;13.27;;;3.60;;
15112;SDS011;7657;50.140;7.076;2023-02-01T04:16:35;9.07;;;3.53;;
15112;SDS011;7657;50.140;7.076;2023-02-01T04:19:02;7.87;;;3.70;;
15112;SDS011;7657;50.140;7.076;2023-02-01T04:21:29;8.97;;;3.47;;
15112;SDS011;7657;50.140;7.076;2023-02-01T04:23:57;8.30;;;3.60;;
15112;SDS011;7657;50.140;7.076;2023-02-01T04:26:25;9.50;;;3.20;;
15112;SDS011;7657;50.140;7.076;2023-02-01T04:28:52;8.60;;;3.57;;
15112;SDS011;7657;50.140;7.076;2023-02-01T04:31:19;8.63;;;3.50;;
15112;SDS011;7657;50.140;7.076;2023-02-01T04:33:50;12.63;;;3.97;;
15112;SDS011;7657;50.140;7.076;2023-02-01T04:36:18;10.17;;;3.60;;
15112;SDS011;7657;50.140;7.076;2023-02-01T04:38:46;15.80;;;4.17;;
15112;SDS011;7657;50.140;7.076;2023-02-01T04:41:14;6.57;;;3.10;;
15112;SDS011;7657;50.140;7.076;2023-02-01T04:43:45;10.67;;;3.70;;
15112;SDS011;7657;50.140;7.076;2023-02-01T04:46:12;10.13;;;3.57;;
15112;SDS011;7657;50.140;7.076;2023-02-01T04:48:39;10.10;;;3.70;;
15112;SDS011;7657;50.140;7.076;2023-02-01T04:51:06;7.70;;;3.70;;
15112;SDS011;7657;50.140;7.076;2023-02-01T04:53:33;8.93;;;3.87;;
15112;SDS011;7657;50.140;7.076;2023-02-01T04:55:59;10.23;;;4.07;;
15112;SDS011;7657;50.140;7.076;2023-02-01T04:58:26;8.57;;;4.10;;
15112;SDS011;7657;50.140;7.076;2023-02-01T05:00:55;8.50;;;4.13;;
15112;SDS011;7657;50.140;7.076;2023-02-01T05:03:21;8.40;;;4.27;;
15112;SDS011;7657;50.140;7.076;2023-02-01T05:05:48;8.83;;;3.97;;
15112;SDS011;7657;50.140;7.076;2023-02-01T05:08:18;10.33;;;4.33;;
15112;SDS011;7657;50.140;7.076;2023-02-01T05:10:47;11.33;;;4.67;;
15112;SDS011;7657;50.140;7.076;2023-02-01T05:13:14;10.70;;;4.23;;
15112;SDS011;7657;50.140;7.076;2023-02-01T05:16:00;15.00;;;4.87;;
15112;SDS011;7657;50.140;7.076;2023-02-01T05:18:27;13.30;;;4.57;;
15112;SDS011;7657;50.140;7.076;2023-02-01T05:20:54;13.37;;;4.57;;
15112;SDS011;7657;50.140;7.076;2023-02-01T05:23:21;12.97;;;4.33;;
15112;SDS011;7657;50.140;7.076;2023-02-01T05:25:48;14.77;;;4.33;;
15112;SDS011;7657;50.140;7.076;2023-02-01T05:28:14;11.00;;;4.33;;
15112;SDS011;7657;50.140;7.076;2023-02-01T05:30:41;12.83;;;4.60;;
15112;SDS011;7657;50.140;7.076;2023-02-01T05:33:10;14.43;;;4.70;;
15112;SDS011;7657;50.140;7.076;2023-02-01T05:35:36;10.13;;;4.00;;
15112;SDS011;7657;50.140;7.076;2023-02-01T05:38:03;10.70;;;4.27;;
15112;SDS011;7657;50.140;7.076;2023-02-01T05:40:30;12.17;;;4.30;;
15112;SDS011;7657;50.140;7.076;2023-02-01T05:42:57;11.93;;;4.40;;
15112;SDS011;7657;50.140;7.076;2023-02-01T05:45:24;16.33;;;4.40;;
15112;SDS011;7657;50.140;7.076;2023-02-01T05:47:51;12.77;;;5.90;;
15112;SDS011;7657;50.140;7.076;2023-02-01T05:50:19;25.73;;;12.40;;
15112;SDS011;7657;50.140;7.076;2023-02-01T05:52:46;12.03;;;5.00;;
15112;SDS011;7657;50.140;7.076;2023-02-01T05:55:13;15.60;;;4.50;;
15112;SDS011;7657;50.140;7.076;2023-02-01T05:57:40;16.50;;;5.70;;
15112;SDS011;7657;50.140;7.076;2023-02-01T06:00:08;15.07;;;5.10;;
15112;SDS011;7657;50.140;7.076;2023-02-01T06:02:36;14.07;;;5.10;;
15112;SDS011;7657;50.140;7.076;2023-02-01T06:05:03;10.30;;;3.80;;
15112;SDS011;7657;50.140;7.076;2023-02-01T06:07:31;11.23;;;4.80;;
15112;SDS011;7657;50.140;7.076;2023-02-01T06:09:58;9.17;;;3.70;;
15112;SDS011;7657;50.140;7.076;2023-02-01T06:12:25;11.30;;;4.00;;
15112;SDS011;7657;50.140;7.076;2023-02-01T06:14:53;8.70;;;4.40;;
15112;SDS011;7657;50.140;7.076;2023-02-01T06:17:20;9.77;;;4.27;;
15112;SDS011;7657;50.140;7.076;2023-02-01T06:19:47;11.07;;;4.40;;
15112;SDS011;7657;50.140;7.076;2023-02-01T06:22:13;11.60;;;3.97;;
15112;SDS011;7657;50.140;7.076;2023-02-01T06:24:42;10.87;;;3.80;;
15112;SDS011;7657;50.140;7.076;2023-02-01T06:27:09;15.23;;;5.70;;
15112;SDS011;7657;50.140;7.076;2023-02-01T06:29:36;17.07;;;6.47;;
15112;SDS011;7657;50.140;7.076;2023-02-01T06:32:03;32.00;;;13.00;;
15112;SDS011;7657;50.140;7.076;2023-02-01T06:34:30;16.60;;;4.20;;
15112;SDS011;7657;50.140;7.076;2023-02-01T06:36:57;14.37;;;3.87;;
15112;SDS011;7657;50.140;7.076;2023-02-01T06:39:24;13.63;;;4.13;;
15112;SDS011;7657;50.140;7.076;2023-02-01T06:41:53;16.43;;;5.83;;
15112;SDS011;7657;50.140;7.076;2023-02-01T06:44:20;11.63;;;3.60;;
15112;SDS011;7657;50.140;7.076;2023-02-01T06:46:47;9.07;;;3.30;;
15112;SDS011;7657;50.140;7.076;2023-02-01T06:49:14;29.77;;;10.93;;
15112;SDS011;7657;50.140;7.076;2023-02-01T06:51:41;13.20;;;4.50;;
15112;SDS011;7657;50.140;7.076;2023-02-01T06:54:08;14.30;;;4.43;;
15112;SDS011;7657;50.140;7.076;2023-02-01T06:56:34;11.33;;;3.53;;
15112;SDS011;7657;50.140;7.076;2023-02-01T06:59:04;10.60;;;3.83;;
15112;SDS011;7657;50.140;7.076;2023-02-01T07:01:31;22.00;;;6.27;;
15112;SDS011;7657;50.140;7.076;2023-02-01T07:03:59;40.47;;;15.07;;
15112;SDS011;7657;50.140;7.076;2023-02-01T07:06:26;12.33;;;3.73;;
15112;SDS011;7657;50.140;7.076;2023-02-01T07:08:53;20.07;;;7.13;;
15112;SDS011;7657;50.140;7.076;2023-02-01T07:11:21;14.97;;;4.87;;
15112;SDS011;7657;50.140;7.076;2023-02-01T07:13:48;25.63;;;8.03;;
15112;SDS011;7657;50.140;7.076;2023-02-01T07:16:20;13.00;;;4.07;;
15112;SDS011;7657;50.140;7.076;2023-02-01T07:18:47;39.07;;;13.33;;
15112;SDS011;7657;50.140;7.076;2023-02-01T07:21:15;32.13;;;12.23;;
15112;SDS011;7657;50.140;7.076;2023-02-01T07:23:42;12.83;;;3.87;;
15112;SDS011;7657;50.140;7.076;2023-02-01T07:26:09;16.37;;;5.47;;
15112;SDS011;7657;50.140;7.076;2023-02-01T07:28:38;16.27;;;6.20;;
15112;SDS011;7657;50.140;7.076;2023-02-01T07:31:06;13.80;;;3.90;;
15112;SDS011;7657;50.140;7.076;2023-02-01T07:33:35;14.13;;;4.10;;
15112;SDS011;7657;50.140;7.076;2023-02-01T07:36:02;20.17;;;6.83;;
15112;SDS011;7657;50.140;7.076;2023-02-01T07:38:31;10.97;;;3.80;;
15112;SDS011;7657;50.140;7.076;2023-02-01T07:40:58;10.90;;;3.10;;
15112;SDS011;7657;50.140;7.076;2023-02-01T07:43:25;12.07;;;3.33;;
15112;SDS011;7657;50.140;7.076;2023-02-01T07:45:53;13.43;;;3.67;;
15112;SDS011;7657;50.140;7.076;2023-02-01T07:48:21;12.40;;;3.87;;
15112;SDS011;7657;50.140;7.076;2023-02-01T07:50:52;13.17;;;3.50;;
15112;SDS011;7657;50.140;7.076;2023-02-01T07:53:26;13.97;;;4.87;;
15112;SDS011;7657;50.140;7.076;2023-02-01T07:55:55;12.93;;;4.17;;
15112;SDS011;7657;50.140;7.076;2023-02-01T07:58:22;15.20;;;3.73;;
15112;SDS011;7657;50.140;7.076;2023-02-01T08:00:49;9.90;;;3.40;;
15112;SDS011;7657;50.140;7.076;2023-02-01T08:03:33;6.83;;;2.60;;
15112;SDS011;7657;50.140;7.076;2023-02-01T08:06:02;9.60;;;3.70;;
15112;SDS011;7657;50.140;7.076;2023-02-01T08:08:29;10.70;;;4.20;;
15112;SDS011;7657;50.140;7.076;2023-02-01T08:10:57;9.97;;;3.73;;
15112;SDS011;7657;50.140;7.076;2023-02-01T08:13:24;13.73;;;3.93;;
15112;SDS011;7657;50.140;7.076;2023-02-01T08:15:51;15.10;;;8.27;;
15112;SDS011;7657;50.140;7.076;2023-02-01T08:18:18;10.67;;;3.03;;
15112;SDS011;7657;50.140;7.076;2023-02-01T08:20:45;13.90;;;3.07;;
15112;SDS011;7657;50.140;7.076;2023-02-01T08:23:14;14.70;;;3.23;;
15112;SDS011;7657;50.140;7.076;2023-02-01T08:25:41;13.10;;;3.43;;
15112;SDS011;7657;50.140;7.076;2023-02-01T08:28:08;10.43;;;3.03;;
15112;SDS011;7657;50.140;7.076;2023-02-01T08:30:35;10.77;;;3.83;;
15112;SDS011;7657;50.140;7.076;2023-02-01T08:33:03;12.70;;;4.13;;
15112;SDS011;7657;50.140;7.076;2023-02-01T08:35:32;10.40;;;3.00;;
15112;SDS011;7657;50.140;7.076;2023-02-01T08:38:00;14.37;;;6.10;;
15112;SDS011;7657;50.140;7.076;2023-02-01T08:40:29;13.60;;;5.30;;
15112;SDS011;7657;50.140;7.076;2023-02-01T08:42:56;11.60;;;5.00;;
15112;SDS011;7657;50.140;7.076;2023-02-01T08:45:24;15.83;;;5.10;;
15112;SDS011;7657;50.140;7.076;2023-02-01T08:47:53;14.70;;;6.87;;
15112;SDS011;7657;50.140;7.076;2023-02-01T08:50:21;14.57;;;4.30;;
15112;SDS011;7657;50.140;7.076;2023-02-01T08:52:48;13.63;;;3.63;;
15112;SDS011;7657;50.140;7.076;2023-02-01T08:55:15;12.17;;;3.70;;
15112;SDS011;7657;50.140;7.076;2023-02-01T08:57:44;8.87;;;3.53;;
15112;SDS011;7657;50.140;7.076;2023-02-01T09:00:12;17.80;;;4.13;;
15112;SDS011;7657;50.140;7.076;2023-02-01T09:02:40;9.33;;;4.73;;
15112;SDS011;7657;50.140;7.076;2023-02-01T09:05:07;15.43;;;4.33;;
15112;SDS011;7657;50.140;7.076;2023-02-01T09:07:35;16.43;;;4.60;;
15112;SDS011;7657;50.140;7.076;2023-02-01T09:10:03;14.40;;;5.00;;
15112;SDS011;7657;50.140;7.076;2023-02-01T09:12:31;10.60;;;3.03;;
15112;SDS011;7657;50.140;7.076;2023-02-01T09:15:01;12.80;;;5.13;;
15112;SDS011;7657;50.140;7.076;2023-02-01T09:17:29;11.80;;;3.37;;
15112;SDS011;7657;50.140;7.076;2023-02-01T09:19:56;16.70;;;5.40;;
15112;SDS011;7657;50.140;7.076;2023-02-01T09:22:22;9.27;;;3.30;;
15112;SDS011;7657;50.140;7.076;2023-02-01T09:24:49;10.67;;;4.10;;
15112;SDS011;7657;50.140;7.076;2023-02-01T09:27:17;9.50;;;3.57;;
15112;SDS011;7657;50.140;7.076;2023-02-01T09:29:44;9.57;;;3.43;;
15112;SDS011;7657;50.140;7.076;2023-02-01T09:32:16;11.50;;;4.30;;
15112;SDS011;7657;50.140;7.076;2023-02-01T09:34:43;13.37;;;4.57;;
15112;SDS011;7657;50.140;7.076;2023-02-01T09:37:09;10.30;;;3.53;;
15112;SDS011;7657;50.140;7.076;2023-02-01T09:39:36;10.27;;;4.07;;
15112;SDS011;7657;50.140;7.076;2023-02-01T09:42:07;10.70;;;3.30;;
15112;SDS011;7657;50.140;7.076;2023-02-01T09:44:48;7.83;;;3.10;;
15112;SDS011;7657;50.140;7.076;2023-02-01T09:47:34;15.80;;;3.20;;
15112;SDS011;7657;50.140;7.076;2023-02-01T09:50:03;10.63;;;3.10;;
15112;SDS011;7657;50.140;7.076;2023-02-01T09:52:40;13.93;;;3.40;;
15112;SDS011;7657;50.140;7.076;2023-02-01T09:55:13;10.83;;;3.33;;
15112;SDS011;7657;50.140;7.076;2023-02-01T09:57:45;9.90;;;3.40;;
15112;SDS011;7657;50.140;7.076;2023-02-01T10:00:19;12.87;;;3.23;;
15112;SDS011;7657;50.140;7.076;2023-02-01T10:02:52;8.80;;;2.90;;
15112;SDS011;7657;50.140;7.076;2023-02-01T10:05:21;11.00;;;3.13;;
15112;SDS011;7657;50.140;7.076;2023-02-01T10:08:09;12.13;;;3.23;;
15112;SDS011;7657;50.140;7.076;2023-02-01T10:10:45;12.20;;;3.30;;
15112;SDS011;7657;50.140;7.076;2023-02-01T10:13:27;7.57;;;3.43;;
15112;SDS011;7657;50.140;7.076;2023-02-01T10:16:09;12.57;;;3.40;;
15112;SDS011;7657;50.140;7.076;2023-02-01T10:18:59;11.50;;;3.00;;
15112;SDS011;7657;50.140;7.076;2023-02-01T10:21:51;9.27;;;3.00;;
15112;SDS011;7657;50.140;7.076;2023-02-01T10:24:34;10.07;;;2.87;;
15112;SDS011;7657;50.140;7.076;2023-02-01T10:27:11;10.97;;;3.17;;
15112;SDS011;7657;50.140;7.076;2023-02-01T10:29:41;10.07;;;2.93;;
15112;SDS011;7657;50.140;7.076;2023-02-01T10:32:12;9.57;;;2.63;;
15112;SDS011;7657;50.140;7.076;2023-02-01T10:34:42;11.30;;;3.27;;
15112;SDS011;7657;50.140;7.076;2023-02-01T10:37:23;10.60;;;3.53;;
15112;SDS011;7657;50.140;7.076;2023-02-01T10:39:54;18.93;;;4.03;;
15112;SDS011;7657;50.140;7.076;2023-02-01T10:42:24;49.50;;;23.77;;
15112;SDS011;7657;50.140;7.076;2023-02-01T10:44:53;43.07;;;19.27;;
15112;SDS011;7657;50.140;7.076;2023-02-01T10:47:22;17.03;;;7.73;;
15112;SDS011;7657;50.140;7.076;2023-02-01T10:49:52;12.33;;;4.77;;
15112;SDS011;7657;50.140;7.076;2023-02-01T10:52:29;18.23;;;9.07;;
15112;SDS011;7657;50.140;7.076;2023-02-01T10:58:14;58.03;;;28.73;;
15112;SDS011;7657;50.140;7.076;2023-02-01T11:00:43;60.13;;;31.83;;
15112;SDS011;7657;50.140;7.076;2023-02-01T11:03:22;43.07;;;21.50;;
15112;SDS011;7657;50.140;7.076;2023-02-01T11:06:10;11.30;;;3.83;;
15112;SDS011;7657;50.140;7.076;2023-02-01T11:08:43;12.03;;;4.97;;
15112;SDS011;7657;50.140;7.076;2023-02-01T11:11:13;16.57;;;6.33;;
15112;SDS011;7657;50.140;7.076;2023-02-01T11:13:40;12.87;;;4.60;;
15112;SDS011;7657;50.140;7.076;2023-02-01T11:16:11;9.50;;;4.93;;
15112;SDS011;7657;50.140;7.076;2023-02-01T11:18:40;9.67;;;3.07;;
15112;SDS011;7657;50.140;7.076;2023-02-01T11:21:08;13.47;;;4.73;;
15112;SDS011;7657;50.140;7.076;2023-02-01T11:23:41;15.67;;;4.13;;
15112;SDS011;7657;50.140;7.076;2023-02-01T11:26:11;11.13;;;4.13;;
15112;SDS011;7657;50.140;7.076;2023-02-01T11:28:44;15.43;;;5.57;;
15112;SDS011;7657;50.140;7.076;2023-02-01T11:31:17;15.20;;;4.23;;
15112;SDS011;7657;50.140;7.076;2023-02-01T11:33:46;14.60;;;5.47;;
15112;SDS011;7657;50.140;7.076;2023-02-01T11:36:19;15.63;;;6.33;;
15112;SDS011;7657;50.140;7.076;2023-02-01T11:38:51;15.87;;;4.37;;
15112;SDS011;7657;50.140;7.076;2023-02-01T11:41:21;11.53;;;5.50;;
15112;SDS011;7657;50.140;7.076;2023-02-01T11:43:50;18.80;;;8.73;;
15112;SDS011;7657;50.140;7.076;2023-02-01T11:46:19;17.73;;;5.90;;
15112;SDS011;7657;50.140;7.076;2023-02-01T11:48:51;10.67;;;3.57;;
15112;SDS011;7657;50.140;7.076;2023-02-01T11:51:24;12.00;;;4.97;;
15112;SDS011;7657;50.140;7.076;2023-02-01T11:54:07;10.87;;;5.10;;
15112;SDS011;7657;50.140;7.076;2023-02-01T11:56:53;13.50;;;3.40;;
15112;SDS011;7657;50.140;7.076;2023-02-01T11:59:34;15.50;;;6.43;;
15112;SDS011;7657;50.140;7.076;2023-02-01T12:02:27;11.30;;;3.07;;
15112;SDS011;7657;50.140;7.076;2023-02-01T12:11:04;16.23;;;6.23;;
15112;SDS011;7657;50.140;7.076;2023-02-01T12:13:47;20.03;;;8.83;;
15112;SDS011;7657;50.140;7.076;2023-02-01T12:16:27;10.23;;;4.17;;
15112;SDS011;7657;50.140;7.076;2023-02-01T12:22:07;10.70;;;2.87;;
15112;SDS011;7657;50.140;7.076;2023-02-01T12:24:52;17.57;;;6.83;;
15112;SDS011;7657;50.140;7.076;2023-02-01T12:30:40;14.60;;;4.50;;
15112;SDS011;7657;50.140;7.076;2023-02-01T12:33:21;10.97;;;2.70;;
15112;SDS011;7657;50.140;7.076;2023-02-01T12:36:09;18.90;;;8.77;;
15112;SDS011;7657;50.140;7.076;2023-02-01T12:38:43;12.37;;;3.50;;
15112;SDS011;7657;50.140;7.076;2023-02-01T12:41:33;13.30;;;5.33;;
15112;SDS011;7657;50.140;7.076;2023-02-01T12:44:10;9.93;;;4.00;;
15112;SDS011;7657;50.140;7.076;2023-02-01T12:46:46;12.07;;;3.33;;
15112;SDS011;7657;50.140;7.076;2023-02-01T12:49:19;19.53;;;8.43;;
15112;SDS011;7657;50.140;7.076;2023-02-01T12:51:51;18.80;;;7.53;;
15112;SDS011;7657;50.140;7.076;2023-02-01T12:54:26;14.33;;;5.63;;
15112;SDS011;7657;50.140;7.076;2023-02-01T12:57:01;36.80;;;19.47;;
15112;SDS011;7657;50.140;7.076;2023-02-01T12:59:33;19.03;;;6.93;;
15112;SDS011;7657;50.140;7.076;2023-02-01T13:02:06;19.17;;;6.30;;
15112;SDS011;7657;50.140;7.076;2023-02-01T13:04:44;19.10;;;8.47;;
15112;SDS011;7657;50.140;7.076;2023-02-01T13:07:18;14.13;;;5.50;;
15112;SDS011;7657;50.140;7.076;2023-02-01T13:09:51;9.40;;;3.60;;
15112;SDS011;7657;50.140;7.076;2023-02-01T13:12:24;13.23;;;4.73;;
15112;SDS011;7657;50.140;7.076;2023-02-01T13:14:59;14.23;;;4.63;;
15112;SDS011;7657;50.140;7.076;2023-02-01T13:17:31;11.03;;;3.57;;
15112;SDS011;7657;50.140;7.076;2023-02-01T13:20:00;12.20;;;2.80;;
15112;SDS011;7657;50.140;7.076;2023-02-01T13:22:32;15.90;;;6.33;;
15112;SDS011;7657;50.140;7.076;2023-02-01T13:25:02;10.90;;;3.10;;
15112;SDS011;7657;50.140;7.076;2023-02-01T13:27:33;8.33;;;3.10;;
15112;SDS011;7657;50.140;7.076;2023-02-01T13:30:00;10.67;;;2.67;;
15112;SDS011;7657;50.140;7.076;2023-02-01T13:32:45;12.30;;;3.93;;
15112;SDS011;7657;50.140;7.076;2023-02-01T13:35:38;12.07;;;4.20;;
15112;SDS011;7657;50.140;7.076;2023-02-01T13:38:25;14.00;;;5.37;;
15112;SDS011;7657;50.140;7.076;2023-02-01T13:41:19;7.23;;;2.43;;
15112;SDS011;7657;50.140;7.076;2023-02-01T13:43:56;7.03;;;2.33;;
15112;SDS011;7657;50.140;7.076;2023-02-01T13:46:26;4.90;;;1.80;;
15112;SDS011;7657;50.140;7.076;2023-02-01T13:48:54;7.43;;;2.07;;
15112;SDS011;7657;50.140;7.076;2023-02-01T13:51:33;8.17;;;2.97;;
15112;SDS011;7657;50.140;7.076;2023-02-01T13:54:03;7.97;;;2.07;;
15112;SDS011;7657;50.140;7.076;2023-02-01T13:56:39;9.30;;;2.43;;
15112;SDS011;7657;50.140;7.076;2023-02-01T14:05:12;7.00;;;2.07;;
15112;SDS011;7657;50.140;7.076;2023-02-01T14:08:07;7.80;;;2.00;;
15112;SDS011;7657;50.140;7.076;2023-02-01T14:10:47;11.63;;;2.67;;
15112;SDS011;7657;50.140;7.076;2023-02-01T14:13:22;9.60;;;2.00;;
15112;SDS011;7657;50.140;7.076;2023-02-01T14:16:12;12.37;;;4.20;;
15112;SDS011;7657;50.140;7.076;2023-02-01T14:18:55;16.27;;;4.57;;
15112;SDS011;7657;50.140;7.076;2023-02-01T14:21:25;10.77;;;2.67;;
15112;SDS011;7657;50.140;7.076;2023-02-01T14:23:56;7.47;;;1.97;;
15112;SDS011;7657;50.140;7.076;2023-02-01T14:26:25;24.57;;;13.90;;
15112;SDS011;7657;50.140;7.076;2023-02-01T14:29:13;6.60;;;1.90;;
15112;SDS011;7657;50.140;7.076;2023-02-01T14:31:54;12.13;;;3.13;;
15112;SDS011;7657;50.140;7.076;2023-02-01T14:34:36;6.93;;;2.10;;
15112;SDS011;7657;50.140;7.076;2023-02-01T14:37:09;8.23;;;2.23;;
15112;SDS011;7657;50.140;7.076;2023-02-01T14:39:51;4.53;;;2.10;;
15112;SDS011;7657;50.140;7.076;2023-02-01T14:42:23;7.67;;;1.80;;
15112;SDS011;7657;50.140;7.076;2023-02-01T14:44:52;10.70;;;2.40;;
15112;SDS011;7657;50.140;7.076;2023-02-01T14:53:02;6.33;;;2.47;;
15112;SDS011;7657;50.140;7.076;2023-02-01T14:55:40;8.90;;;2.40;;
15112;SDS011;7657;50.140;7.076;2023-02-01T14:58:13;8.17;;;2.67;;
15112;SDS011;7657;50.140;7.076;2023-02-01T15:00:49;9.10;;;2.50;;
15112;SDS011;7657;50.140;7.076;2023-02-01T15:03:32;9.13;;;3.10;;
15112;SDS011;7657;50.140;7.076;2023-02-01T15:06:20;8.43;;;2.50;;
15112;SDS011;7657;50.140;7.076;2023-02-01T15:08:55;5.17;;;2.40;;
15112;SDS011;7657;50.140;7.076;2023-02-01T15:11:24;8.20;;;1.90;;
15112;SDS011;7657;50.140;7.076;2023-02-01T15:13:52;7.63;;;3.33;;
15112;SDS011;7657;50.140;7.076;2023-02-01T15:16:21;7.10;;;2.77;;
15112;SDS011;7657;50.140;7.076;2023-02-01T15:18:49;6.77;;;2.63;;
15112;SDS011;7657;50.140;7.076;2023-02-01T15:21:17;9.33;;;2.97;;
15112;SDS011;7657;50.140;7.076;2023-02-01T15:23:48;7.53;;;2.13;;
15112;SDS011;7657;50.140;7.076;2023-02-01T15:26:25;4.70;;;2.13;;
15112;SDS011;7657;50.140;7.076;2023-02-01T15:28:53;9.40;;;2.13;;
15112;SDS011;7657;50.140;7.076;2023-02-01T15:31:31;10.40;;;2.13;;
15112;SDS011;7657;50.140;7.076;2023-02-01T15:33:59;5.97;;;2.10;;
15112;SDS011;7657;50.140;7.076;2023-02-01T15:36:27;7.93;;;2.17;;
15112;SDS011;7657;50.140;7.076;2023-02-01T15:39:13;5.70;;;1.57;;
15112;SDS011;7657;50.140;7.076;2023-02-01T15:41:44;7.23;;;1.83;;
15112;SDS011;7657;50.140;7.076;2023-02-01T15:44:16;4.10;;;1.87;;
15112;SDS011;7657;50.140;7.076;2023-02-01T15:46:46;5.00;;;1.70;;
15112;SDS011;7657;50.140;7.076;2023-02-01T15:49:17;5.67;;;1.63;;